createdAt,value
2023-03-10T00:00:53.467Z,95.89
2023-03-10T00:01:53.487Z,95.68
2023-03-10T00:02:53.452Z,95.47
2023-03-10T00:03:53.422Z,95.89
2023-03-10T00:04:53.514Z,95.89
2023-03-10T00:05:53.562Z,95.89
2023-03-10T00:06:53.465Z,95.78
2023-03-10T00:07:53.407Z,95.68
2023-03-10T00:08:53.420Z,95.68
2023-03-10T00:09:53.351Z,95.68
2023-03-10T00:10:53.350Z,95.89
2023-03-10T00:11:53.333Z,96.20
2023-03-10T00:12:53.348Z,96.45
2023-03-10T00:13:53.300Z,96.45
2023-03-10T00:14:53.286Z,96.72
2023-03-10T00:15:53.382Z,96.51
2023-03-10T00:16:53.297Z,96.34
2023-03-10T00:17:53.272Z,95.26
2023-03-10T00:18:53.308Z,95.89
2023-03-10T00:19:53.278Z,95.72
2023-03-10T00:20:53.266Z,96.14
2023-03-10T00:21:53.234Z,95.57
2023-03-10T00:22:53.237Z,95.37
2023-03-10T00:23:53.209Z,95.06
2023-03-10T00:24:53.218Z,94.85
2023-03-10T00:25:53.165Z,95.26
2023-03-10T00:26:53.152Z,95.41
2023-03-10T00:27:53.172Z,95.31
2023-03-10T00:28:53.183Z,95.51
2023-03-10T00:29:53.248Z,95.41
2023-03-10T00:30:53.121Z,95.41
2023-03-10T00:31:53.101Z,95.31
2023-03-10T00:32:53.192Z,94.79
2023-03-10T00:33:53.122Z,94.89
2023-03-10T00:34:53.108Z,95.00
2023-03-10T00:35:53.134Z,95.10
2023-03-10T00:36:53.102Z,95.20
2023-03-10T00:37:53.059Z,95.15
2023-03-10T00:38:53.155Z,95.46
2023-03-10T00:39:53.028Z,95.36
2023-03-10T00:41:01.634Z,95.25
2023-03-10T00:41:53.008Z,95.50
2023-03-10T00:42:52.980Z,95.36
2023-03-10T00:43:52.990Z,95.36
2023-03-10T00:44:53.027Z,95.81
2023-03-10T00:45:53.042Z,96.02
2023-03-10T00:46:52.984Z,95.92
2023-03-10T00:47:52.994Z,96.02
2023-03-10T00:48:52.922Z,96.33
2023-03-10T00:49:52.905Z,96.85
2023-03-10T00:50:52.930Z,96.58
2023-03-10T00:51:52.888Z,96.37
2023-03-10T00:52:52.884Z,96.58
2023-03-10T00:53:52.893Z,96.79
2023-03-10T00:54:52.893Z,96.48
2023-03-10T00:55:52.847Z,97.20
2023-03-10T00:56:52.852Z,96.89
2023-03-10T00:57:52.863Z,97.35
2023-03-10T00:58:52.827Z,97.83
2023-03-10T00:59:52.835Z,98.29
2023-03-10T01:00:52.830Z,98.55
2023-03-10T01:01:52.852Z,97.83
2023-03-10T01:02:52.757Z,97.93
2023-03-10T01:03:52.821Z,98.97
2023-03-10T01:04:52.792Z,99.38
2023-03-10T01:05:52.776Z,98.66
2023-03-10T01:06:52.756Z,98.03
2023-03-10T01:07:52.724Z,98.03
2023-03-10T01:08:52.739Z,98.03
2023-03-10T01:09:52.699Z,98.24
2023-03-10T01:10:52.693Z,97.93
2023-03-10T01:11:52.704Z,97.62
2023-03-10T01:12:52.717Z,97.72
2023-03-10T01:13:52.663Z,97.62
2023-03-10T01:14:52.630Z,97.72
2023-03-10T01:15:52.693Z,97.68
2023-03-10T01:16:52.632Z,97.72
2023-03-10T01:17:52.597Z,97.31
2023-03-10T01:18:52.594Z,97.58
2023-03-10T01:19:52.608Z,97.27
2023-03-10T01:20:52.606Z,97.31
2023-03-10T01:21:52.578Z,97.16
2023-03-10T01:22:52.546Z,97.16
2023-03-10T01:23:52.522Z,96.95
2023-03-10T01:24:52.541Z,96.44
2023-03-10T01:25:52.498Z,96.79
2023-03-10T01:26:52.512Z,96.75
2023-03-10T01:27:52.517Z,96.75
2023-03-10T01:28:52.560Z,97.10
2023-03-10T01:29:52.485Z,97.00
2023-03-10T01:30:52.480Z,96.79
2023-03-10T01:31:52.438Z,96.89
2023-03-10T01:32:52.508Z,96.95
2023-03-10T01:33:52.548Z,96.58
2023-03-10T01:34:52.411Z,96.69
2023-03-10T01:35:52.507Z,96.69
2023-03-10T01:36:52.377Z,96.52
2023-03-10T01:37:52.415Z,97.04
2023-03-10T01:38:52.369Z,96.83
2023-03-10T01:39:52.386Z,96.62
2023-03-10T01:40:52.339Z,96.73
2023-03-10T01:41:52.345Z,96.73
2023-03-10T01:42:52.311Z,96.73
2023-03-10T01:43:52.359Z,96.73
2023-03-10T01:44:52.325Z,96.67
2023-03-10T01:45:52.270Z,96.83
2023-03-10T01:46:52.350Z,97.19
2023-03-10T01:47:52.293Z,97.50
2023-03-10T01:48:52.250Z,97.19
2023-03-10T01:49:52.253Z,97.61
2023-03-10T01:50:52.247Z,98.13
2023-03-10T01:51:52.204Z,98.33
2023-03-10T01:52:52.220Z,98.13
2023-03-10T01:53:52.231Z,98.33
2023-03-10T01:54:52.219Z,98.54
2023-03-10T01:55:52.238Z,97.92
2023-03-10T01:56:52.143Z,98.02
2023-03-10T01:57:52.198Z,97.81
2023-03-10T01:58:52.160Z,98.02
2023-03-10T01:59:52.111Z,97.81
2023-03-10T02:00:52.182Z,98.33
2023-03-10T02:01:52.193Z,98.02
2023-03-10T02:02:52.138Z,97.61
2023-03-10T02:03:52.078Z,98.08
2023-03-10T02:04:52.080Z,97.92
2023-03-10T02:05:52.122Z,97.71
2023-03-10T02:06:52.074Z,97.67
2023-03-10T02:07:52.066Z,97.45
2023-03-10T02:08:52.025Z,97.25
2023-03-10T02:09:52.037Z,97.77
2023-03-10T02:10:52.088Z,97.88
2023-03-10T02:11:52.059Z,97.88
2023-03-10T02:12:51.997Z,98.29
2023-03-10T02:13:51.985Z,98.08
2023-03-10T02:14:51.959Z,98.29
2023-03-10T02:15:52.066Z,98.91
2023-03-10T02:16:52.238Z,97.77
2023-03-10T02:17:51.985Z,98.66
2023-03-10T02:18:51.903Z,98.29
2023-03-10T02:19:51.894Z,98.39
2023-03-10T02:20:51.895Z,98.50
2023-03-10T02:21:51.934Z,98.19
2023-03-10T02:22:51.913Z,98.29
2023-03-10T02:24:01.021Z,98.50
2023-03-10T02:24:52.905Z,98.44
2023-03-10T02:25:51.831Z,98.39
2023-03-10T02:26:51.847Z,99.12
2023-03-10T02:27:51.798Z,98.75
2023-03-10T02:28:51.862Z,99.16
2023-03-10T02:29:59.184Z,97.81
2023-03-10T02:30:52.830Z,98.39
2023-03-10T02:31:51.822Z,99.22
2023-03-10T02:32:51.841Z,98.91
2023-03-10T02:33:51.796Z,98.71
2023-03-10T02:34:51.758Z,98.29
2023-03-10T02:35:51.807Z,97.98
2023-03-10T02:36:51.751Z,97.72
2023-03-10T02:37:51.701Z,97.72
2023-03-10T02:38:51.721Z,97.72
2023-03-10T02:39:52.659Z,97.72
2023-03-10T02:40:51.687Z,97.72
2023-03-10T02:41:51.642Z,97.72
2023-03-10T02:42:51.772Z,97.00
2023-03-10T02:43:51.663Z,97.06
2023-03-10T02:44:51.608Z,96.75
2023-03-10T02:45:51.723Z,97.31
2023-03-10T02:46:51.584Z,97.20
2023-03-10T02:47:51.574Z,97.16
2023-03-10T02:48:51.623Z,97.27
2023-03-10T02:49:51.571Z,96.95
2023-03-10T02:50:51.579Z,96.95
2023-03-10T02:51:51.600Z,97.06
2023-03-10T02:52:51.518Z,97.06
2023-03-10T02:53:51.556Z,97.16
2023-03-10T02:54:51.509Z,97.06
2023-03-10T02:55:51.583Z,97.27
2023-03-10T02:56:51.489Z,97.37
2023-03-10T02:57:51.501Z,96.95
2023-03-10T02:58:51.518Z,96.95
2023-03-10T02:59:51.463Z,96.64
2023-03-10T03:00:51.533Z,96.64
2023-03-10T03:01:51.418Z,96.60
2023-03-10T03:02:51.470Z,96.91
2023-03-10T03:03:51.475Z,96.50
2023-03-10T03:04:51.384Z,97.12
2023-03-10T03:05:51.446Z,96.50
2023-03-10T03:06:51.409Z,96.70
2023-03-10T03:07:51.353Z,96.81
2023-03-10T03:08:51.391Z,96.91
2023-03-10T03:09:51.374Z,96.70
2023-03-10T03:10:51.326Z,96.91
2023-03-10T03:11:51.316Z,96.60
2023-03-10T03:12:51.422Z,96.19
2023-03-10T03:13:51.299Z,95.98
2023-03-10T03:14:51.319Z,96.19
2023-03-10T03:15:51.259Z,96.08
2023-03-10T03:16:51.354Z,95.98
2023-03-10T03:17:51.287Z,95.98
2023-03-10T03:18:51.273Z,95.87
2023-03-10T03:19:51.272Z,95.98
2023-03-10T03:20:51.228Z,96.45
2023-03-10T03:21:51.254Z,96.29
2023-03-10T03:22:51.233Z,95.72
2023-03-10T03:23:51.200Z,95.62
2023-03-10T03:24:51.210Z,95.93
2023-03-10T03:25:51.163Z,95.93
2023-03-10T03:26:51.194Z,96.14
2023-03-10T03:27:51.142Z,95.98
2023-03-10T03:28:51.120Z,96.24
2023-03-10T03:29:51.194Z,95.93
2023-03-10T03:30:51.193Z,95.93
2023-03-10T03:31:51.154Z,95.72
2023-03-10T03:32:51.206Z,95.72
2023-03-10T03:33:51.092Z,95.87
2023-03-10T03:34:51.074Z,95.98
2023-03-10T03:35:51.126Z,96.29
2023-03-10T03:36:51.069Z,96.70
2023-03-10T03:37:51.046Z,97.12
2023-03-10T03:38:51.009Z,97.02
2023-03-10T03:39:51.041Z,96.81
2023-03-10T03:40:51.003Z,96.70
2023-03-10T03:41:51.030Z,97.07
2023-03-10T03:42:51.012Z,96.50
2023-03-10T03:43:50.977Z,96.66
2023-03-10T03:44:50.935Z,96.76
2023-03-10T03:45:50.940Z,96.66
2023-03-10T03:46:50.993Z,96.97
2023-03-10T03:47:50.979Z,96.55
2023-03-10T03:48:50.908Z,96.86
2023-03-10T03:49:50.923Z,96.86
2023-03-10T03:50:50.882Z,96.76
2023-03-10T03:51:50.939Z,96.97
2023-03-10T03:52:50.842Z,96.86
2023-03-10T03:53:50.846Z,96.86
2023-03-10T03:54:50.857Z,96.09
2023-03-10T03:55:50.896Z,95.62
2023-03-10T03:56:50.810Z,95.31
2023-03-10T03:57:50.835Z,95.31
2023-03-10T03:58:50.825Z,95.62
2023-03-10T03:59:50.788Z,95.31
2023-03-10T04:00:51.847Z,95.37
2023-03-10T04:01:50.747Z,94.95
2023-03-10T04:02:50.868Z,95.26
2023-03-10T04:03:50.928Z,95.06
2023-03-10T04:04:50.754Z,95.47
2023-03-10T04:05:50.727Z,95.47
2023-03-10T04:06:50.733Z,94.95
2023-03-10T04:07:50.747Z,95.47
2023-03-10T04:08:50.689Z,95.47
2023-03-10T04:09:50.677Z,95.37
2023-03-10T04:10:50.725Z,95.47
2023-03-10T04:11:50.659Z,94.85
2023-03-10T04:12:50.622Z,94.85
2023-03-10T04:13:50.637Z,94.64
2023-03-10T04:14:50.639Z,94.64
2023-03-10T04:15:50.683Z,94.43
2023-03-10T04:16:50.585Z,94.33
2023-03-10T04:17:50.563Z,95.26
2023-03-10T04:18:50.580Z,95.22
2023-03-10T04:20:04.557Z,94.49
2023-03-10T04:20:51.608Z,94.74
2023-03-10T04:21:50.620Z,95.26
2023-03-10T04:22:50.525Z,94.54
2023-03-10T04:23:50.548Z,95.22
2023-03-10T04:24:50.540Z,95.01
2023-03-10T04:25:50.511Z,94.85
2023-03-10T04:26:50.564Z,95.22
2023-03-10T04:27:50.562Z,94.54
2023-03-10T04:28:50.524Z,94.08
2023-03-10T04:29:50.542Z,94.08
2023-03-10T04:30:50.562Z,94.33
2023-03-10T04:32:04.794Z,94.23
2023-03-10T04:32:51.500Z,94.49
2023-03-10T04:33:50.403Z,93.98
2023-03-10T04:34:50.479Z,94.49
2023-03-10T04:35:50.406Z,94.60
2023-03-10T04:36:50.380Z,94.49
2023-03-10T04:37:50.379Z,93.15
2023-03-10T04:38:50.349Z,93.56
2023-03-10T04:39:50.355Z,92.28
2023-03-10T04:40:50.398Z,91.86
2023-03-10T04:41:50.312Z,91.14
2023-03-10T04:42:50.368Z,91.20
2023-03-10T04:43:50.312Z,90.47
2023-03-10T04:44:50.277Z,89.34
2023-03-10T04:45:50.337Z,88.88
2023-03-10T04:46:50.382Z,88.26
2023-03-10T04:47:50.264Z,88.12
2023-03-10T04:48:50.220Z,87.39
2023-03-10T04:49:50.211Z,87.15
2023-03-10T04:50:50.282Z,86.94
2023-03-10T04:51:50.213Z,86.83
2023-03-10T04:52:50.217Z,86.83
2023-03-10T04:53:50.192Z,86.83
2023-03-10T04:54:50.195Z,85.86
2023-03-10T04:55:50.175Z,85.70
2023-03-10T04:56:50.156Z,85.45
2023-03-10T04:57:50.170Z,85.35
2023-03-10T04:58:50.130Z,85.31
2023-03-10T04:59:50.125Z,85.21
2023-03-10T05:01:02.444Z,85.31
2023-03-10T05:01:51.181Z,85.72
2023-03-10T05:02:50.107Z,86.65
2023-03-10T05:03:50.055Z,86.76
2023-03-10T05:04:50.206Z,86.76
2023-03-10T05:05:50.069Z,85.72
2023-03-10T05:06:50.057Z,85.41
2023-03-10T05:07:50.038Z,86.03
2023-03-10T05:08:50.007Z,85.72
2023-03-10T05:09:49.996Z,86.55
2023-03-10T05:10:50.047Z,86.65
2023-03-10T05:11:49.986Z,85.62
2023-03-10T05:12:50.019Z,85.00
2023-03-10T05:13:50.054Z,84.48
2023-03-10T05:14:49.925Z,84.79
2023-03-10T05:15:49.926Z,84.48
2023-03-10T05:16:49.907Z,84.48
2023-03-10T05:17:50.207Z,84.17
2023-03-10T05:18:49.916Z,84.38
2023-03-10T05:19:49.905Z,85.31
2023-03-10T05:20:49.906Z,85.31
2023-03-10T05:21:49.866Z,83.86
2023-03-10T05:22:49.881Z,84.48
2023-03-10T05:23:49.888Z,83.97
2023-03-10T05:24:49.825Z,84.28
2023-03-10T05:25:49.840Z,84.69
2023-03-10T05:26:49.846Z,84.69
2023-03-10T05:27:49.812Z,84.79
2023-03-10T05:28:49.790Z,85.21
2023-03-10T05:29:50.261Z,84.69
2023-03-10T05:30:49.770Z,84.69
2023-03-10T05:31:49.780Z,84.89
2023-03-10T05:32:49.867Z,85.31
2023-03-10T05:33:49.756Z,84.75
2023-03-10T05:34:50.210Z,84.75
2023-03-10T05:35:50.758Z,84.96
2023-03-10T05:36:49.762Z,84.59
2023-03-10T05:37:50.696Z,85.83
2023-03-10T05:38:49.789Z,85.10
2023-03-10T05:39:49.660Z,85.47
2023-03-10T05:40:50.662Z,85.00
2023-03-10T05:41:49.766Z,85.10
2023-03-10T05:42:49.653Z,85.21
2023-03-10T05:43:49.617Z,85.78
2023-03-10T05:44:49.596Z,86.61
2023-03-10T05:45:49.597Z,87.13
2023-03-10T05:46:49.726Z,87.02
2023-03-10T05:47:49.795Z,87.02
2023-03-10T05:48:49.600Z,87.34
2023-03-10T05:49:49.594Z,87.13
2023-03-10T05:50:49.525Z,87.23
2023-03-10T05:51:49.512Z,87.71
2023-03-10T05:52:49.522Z,87.92
2023-03-10T05:53:49.525Z,88.49
2023-03-10T05:54:49.547Z,88.70
2023-03-10T05:55:49.528Z,88.56
2023-03-10T05:56:49.457Z,88.31
2023-03-10T05:57:49.451Z,88.26
2023-03-10T05:58:49.451Z,88.47
2023-03-10T05:59:49.448Z,88.84
2023-03-10T06:00:49.431Z,89.36
2023-03-10T06:01:49.401Z,89.71
2023-03-10T06:02:49.517Z,89.87
2023-03-10T06:03:49.603Z,90.49
2023-03-10T06:04:49.397Z,90.08
2023-03-10T06:05:49.359Z,90.59
2023-03-10T06:06:49.363Z,90.08
2023-03-10T06:07:49.336Z,90.64
2023-03-10T06:08:49.379Z,91.62
2023-03-10T06:09:49.387Z,92.03
2023-03-10T06:10:49.315Z,91.42
2023-03-10T06:11:49.302Z,91.42
2023-03-10T06:12:49.289Z,91.46
2023-03-10T06:13:49.275Z,91.11
2023-03-10T06:14:49.321Z,90.49
2023-03-10T06:15:49.312Z,90.39
2023-03-10T06:16:49.351Z,90.49
2023-03-10T06:17:49.240Z,89.67
2023-03-10T06:18:49.274Z,90.08
2023-03-10T06:19:49.197Z,90.59
2023-03-10T06:20:49.200Z,90.59
2023-03-10T06:21:49.193Z,90.39
2023-03-10T06:22:49.213Z,91.52
2023-03-10T06:23:49.175Z,90.59
2023-03-10T06:24:49.182Z,90.39
2023-03-10T06:25:49.143Z,90.39
2023-03-10T06:26:49.204Z,90.49
2023-03-10T06:27:49.151Z,90.69
2023-03-10T06:28:49.152Z,91.62
2023-03-10T06:29:49.118Z,90.80
2023-03-10T06:30:49.086Z,90.59
2023-03-10T06:31:49.107Z,90.33
2023-03-10T06:32:49.133Z,90.49
2023-03-10T06:33:49.045Z,90.69
2023-03-10T06:34:49.095Z,91.42
2023-03-10T06:35:49.026Z,90.49
2023-03-10T06:36:49.007Z,90.49
2023-03-10T06:37:49.012Z,90.80
2023-03-10T06:38:49.021Z,90.49
2023-03-10T06:39:49.022Z,90.59
2023-03-10T06:40:48.984Z,90.28
2023-03-10T06:41:49.046Z,90.28
2023-03-10T06:42:48.969Z,90.28
2023-03-10T06:43:49.052Z,90.08
2023-03-10T06:44:49.392Z,90.08
2023-03-10T06:45:48.988Z,89.87
2023-03-10T06:46:48.929Z,89.77
2023-03-10T06:47:48.905Z,89.97
2023-03-10T06:48:48.885Z,90.28
2023-03-10T06:49:48.900Z,89.56
2023-03-10T06:50:48.959Z,89.62
2023-03-10T06:51:48.874Z,89.25
2023-03-10T06:52:48.874Z,88.90
2023-03-10T06:53:48.922Z,89.31
2023-03-10T06:54:48.822Z,89.42
2023-03-10T06:55:48.822Z,88.80
2023-03-10T06:56:48.791Z,88.90
2023-03-10T06:57:48.957Z,89.62
2023-03-10T06:58:48.837Z,89.22
2023-03-10T06:59:48.810Z,89.52
2023-03-10T07:00:48.796Z,88.90
2023-03-10T07:01:48.783Z,89.01
2023-03-10T07:02:48.768Z,88.96
2023-03-10T07:03:48.704Z,89.42
2023-03-10T07:04:48.841Z,89.07
2023-03-10T07:05:50.709Z,89.38
2023-03-10T07:06:48.696Z,89.07
2023-03-10T07:07:48.714Z,89.07
2023-03-10T07:08:48.668Z,89.07
2023-03-10T07:09:49.232Z,89.48
2023-03-10T07:10:50.105Z,88.96
2023-03-10T07:11:48.628Z,89.17
2023-03-10T07:12:48.782Z,89.07
2023-03-10T07:13:48.596Z,88.10
2023-03-10T07:14:48.629Z,88.41
2023-03-10T07:15:48.617Z,88.41
2023-03-10T07:16:48.654Z,88.51
2023-03-10T07:17:48.562Z,88.41
2023-03-10T07:18:48.573Z,87.79
2023-03-10T07:19:48.546Z,87.18
2023-03-10T07:20:48.511Z,87.38
2023-03-10T07:21:48.523Z,87.18
2023-03-10T07:22:48.497Z,86.93
2023-03-10T07:23:48.506Z,86.83
2023-03-10T07:24:48.478Z,86.68
2023-03-10T07:25:48.607Z,86.99
2023-03-10T07:26:48.446Z,86.17
2023-03-10T07:27:48.430Z,85.86
2023-03-10T07:28:48.440Z,86.54
2023-03-10T07:29:48.433Z,86.27
2023-03-10T07:30:48.511Z,86.13
2023-03-10T07:31:48.453Z,86.07
2023-03-10T07:32:48.469Z,86.13
2023-03-10T07:33:48.430Z,84.69
2023-03-10T07:34:48.376Z,85.11
2023-03-10T07:35:48.412Z,85.21
2023-03-10T07:36:48.331Z,84.49
2023-03-10T07:37:48.324Z,84.25
2023-03-10T07:38:48.337Z,84.08
2023-03-10T07:39:48.371Z,84.34
2023-03-10T07:40:48.309Z,84.14
2023-03-10T07:41:48.325Z,84.45
2023-03-10T07:42:48.259Z,84.86
2023-03-10T07:43:48.260Z,84.66
2023-03-10T07:44:48.327Z,84.76
2023-03-10T07:45:48.369Z,85.58
2023-03-10T07:46:48.236Z,85.13
2023-03-10T07:47:48.258Z,86.25
2023-03-10T07:48:48.326Z,85.13
2023-03-10T07:49:48.307Z,86.25
2023-03-10T07:50:48.243Z,85.85
2023-03-10T07:51:48.188Z,84.61
2023-03-10T07:52:48.188Z,84.82
2023-03-10T07:53:48.195Z,83.90
2023-03-10T07:54:48.125Z,84.20
2023-03-10T07:55:48.118Z,84.61
2023-03-10T07:56:50.942Z,84.27
2023-03-10T07:57:48.140Z,84.06
2023-03-10T07:58:48.089Z,83.76
2023-03-10T07:59:48.149Z,84.06
2023-03-10T08:00:48.072Z,83.55
2023-03-10T08:01:48.054Z,83.55
2023-03-10T08:02:48.111Z,83.25
2023-03-10T08:03:48.096Z,84.58
2023-03-10T08:04:48.120Z,83.92
2023-03-10T08:05:48.073Z,84.44
2023-03-10T08:06:48.046Z,83.51
2023-03-10T08:07:47.990Z,83.10
2023-03-10T08:08:47.998Z,82.39
2023-03-10T08:09:48.018Z,82.79
2023-03-10T08:10:47.948Z,82.55
2023-03-10T08:11:48.014Z,83.78
2023-03-10T08:12:47.924Z,82.55
2023-03-10T08:13:48.022Z,82.55
2023-03-10T08:14:47.940Z,81.94
2023-03-10T08:15:47.963Z,82.14
2023-03-10T08:16:47.941Z,81.84
2023-03-10T08:17:47.910Z,82.24
2023-03-10T08:18:47.913Z,82.31
2023-03-10T08:19:47.872Z,81.90
2023-03-10T08:20:47.865Z,81.94
2023-03-10T08:21:47.837Z,82.71
2023-03-10T08:22:47.807Z,83.03
2023-03-10T08:23:47.823Z,82.10
2023-03-10T08:24:47.831Z,82.10
2023-03-10T08:25:48.026Z,81.90
2023-03-10T08:26:47.762Z,81.04
2023-03-10T08:27:47.763Z,81.04
2023-03-10T08:28:47.830Z,81.35
2023-03-10T08:29:47.749Z,81.04
2023-03-10T08:31:02.888Z,80.43
2023-03-10T08:31:48.839Z,80.63
2023-03-10T08:32:47.812Z,80.53
2023-03-10T08:33:47.690Z,80.43
2023-03-10T08:34:47.753Z,80.53
2023-03-10T08:35:47.712Z,80.02
2023-03-10T08:36:47.671Z,80.53
2023-03-10T08:37:47.668Z,81.31
2023-03-10T08:38:47.682Z,81.01
2023-03-10T08:39:47.637Z,80.74
2023-03-10T08:40:47.629Z,79.57
2023-03-10T08:41:47.739Z,79.68
2023-03-10T08:42:48.631Z,80.33
2023-03-10T08:43:49.311Z,80.83
2023-03-10T08:44:47.562Z,80.08
2023-03-10T08:45:47.565Z,79.30
2023-03-10T08:46:47.648Z,79.78
2023-03-10T08:47:47.587Z,79.71
2023-03-10T08:48:47.542Z,79.88
2023-03-10T08:49:48.908Z,79.68
2023-03-10T08:50:47.584Z,79.88
2023-03-10T08:51:47.543Z,79.57
2023-03-10T08:52:47.476Z,80.19
2023-03-10T08:53:47.479Z,79.06
2023-03-10T08:54:47.507Z,79.64
2023-03-10T08:55:47.499Z,79.37
2023-03-10T08:56:47.437Z,78.11
2023-03-10T08:57:47.447Z,78.52
2023-03-10T08:58:47.422Z,78.11
2023-03-10T08:59:47.416Z,77.39
2023-03-10T09:00:47.423Z,77.39
2023-03-10T09:01:47.461Z,77.80
2023-03-10T09:02:47.409Z,77.49
2023-03-10T09:03:47.362Z,77.25
2023-03-10T09:04:47.470Z,77.45
2023-03-10T09:05:47.404Z,76.43
2023-03-10T09:06:47.336Z,77.45
2023-03-10T09:07:47.387Z,77.35
2023-03-10T09:08:47.296Z,76.40
2023-03-10T09:09:47.359Z,75.78
2023-03-10T09:10:47.304Z,77.52
2023-03-10T09:11:47.293Z,77.62
2023-03-10T09:12:47.249Z,76.09
2023-03-10T09:13:47.484Z,75.48
2023-03-10T09:14:47.286Z,74.32
2023-03-10T09:15:47.229Z,74.42
2023-03-10T09:16:47.341Z,74.18
2023-03-10T09:17:47.273Z,74.69
2023-03-10T09:18:47.184Z,75.10
2023-03-10T09:19:47.419Z,74.15
2023-03-10T09:20:47.160Z,73.84
2023-03-10T09:21:47.170Z,73.13
2023-03-10T09:22:47.162Z,72.72
2023-03-10T09:23:47.167Z,72.41
2023-03-10T09:24:47.193Z,72.41
2023-03-10T09:25:47.114Z,72.52
2023-03-10T09:26:47.191Z,72.28
2023-03-10T09:27:47.103Z,71.60
2023-03-10T09:28:47.101Z,71.46
2023-03-10T09:30:47.076Z,71.67
2023-03-10T09:31:47.274Z,70.14
2023-03-10T09:32:47.100Z,71.36
2023-03-10T09:33:48.281Z,71.84
2023-03-10T09:34:47.064Z,71.33
2023-03-10T09:35:52.812Z,70.72
2023-03-10T09:36:48.021Z,71.02
2023-03-10T09:37:46.968Z,70.00
2023-03-10T09:38:47.025Z,70.92
2023-03-10T09:39:46.995Z,71.30
2023-03-10T09:40:46.936Z,70.99
2023-03-10T09:41:47.001Z,70.89
2023-03-10T09:42:46.951Z,68.95
2023-03-10T09:43:46.910Z,68.24
2023-03-10T09:44:46.905Z,68.44
2023-03-10T09:45:46.933Z,68.95
2023-03-10T09:46:46.923Z,67.83
2023-03-10T09:47:46.907Z,67.63
2023-03-10T09:48:46.842Z,67.60
2023-03-10T09:49:46.883Z,67.93
2023-03-10T09:50:46.851Z,68.24
2023-03-10T09:51:46.861Z,66.82
2023-03-10T09:52:46.874Z,67.43
2023-03-10T09:53:49.467Z,67.52
2023-03-10T09:54:46.836Z,68.57
2023-03-10T09:55:48.407Z,72.21
2023-03-10T09:56:46.813Z,73.54
2023-03-10T09:57:46.843Z,77.34
2023-03-10T09:58:46.807Z,77.89
2023-03-10T09:59:46.804Z,79.29
2023-03-10T10:00:46.724Z,78.99
2023-03-10T10:01:46.759Z,80.66
2023-03-10T10:02:46.738Z,80.56
2023-03-10T10:03:53.081Z,80.56
2023-03-10T10:04:47.732Z,80.97
2023-03-10T10:05:46.655Z,80.90
2023-03-10T10:06:46.688Z,80.80
2023-03-10T10:07:46.660Z,82.03
2023-03-10T10:08:54.656Z,81.31
2023-03-10T10:09:47.822Z,81.82
2023-03-10T10:10:46.779Z,83.09
2023-03-10T10:11:46.641Z,83.70
2023-03-10T10:12:46.591Z,85.96
2023-03-10T10:13:46.592Z,85.55
2023-03-10T10:14:56.806Z,84.66
2023-03-10T10:15:47.614Z,83.84
2023-03-10T10:16:46.563Z,83.17
2023-03-10T10:17:52.981Z,81.84
2023-03-10T10:18:47.509Z,83.06
2023-03-10T10:19:46.537Z,83.78
2023-03-10T10:20:46.543Z,83.20
2023-03-10T10:21:46.489Z,83.72
2023-03-10T10:22:46.465Z,84.03
2023-03-10T10:23:46.479Z,84.12
2023-03-10T10:24:46.476Z,84.68
2023-03-10T10:25:47.765Z,86.01
2023-03-10T10:26:46.433Z,86.46
2023-03-10T10:27:46.540Z,86.05
2023-03-10T10:28:46.432Z,86.25
2023-03-10T10:29:46.402Z,85.60
2023-03-10T10:30:46.450Z,86.22
2023-03-10T10:31:46.356Z,86.32
2023-03-10T10:32:46.435Z,84.37
2023-03-10T10:33:46.371Z,83.04
2023-03-10T10:34:46.425Z,82.01
2023-03-10T10:35:46.427Z,82.28
2023-03-10T10:36:46.338Z,80.95
2023-03-10T10:37:46.398Z,81.12
2023-03-10T10:38:46.295Z,81.63
2023-03-10T10:39:46.325Z,81.43
2023-03-10T10:40:46.278Z,81.94
2023-03-10T10:41:54.779Z,79.24
2023-03-10T10:42:46.252Z,79.75
2023-03-10T10:43:46.257Z,81.08
2023-03-10T10:44:46.209Z,80.46
2023-03-10T10:45:46.292Z,79.96
2023-03-10T10:46:46.190Z,82.04
2023-03-10T10:47:46.188Z,83.27
2023-03-10T10:48:46.314Z,83.82
2023-03-10T10:49:46.157Z,83.34
2023-03-10T10:50:46.145Z,82.63
2023-03-10T10:51:46.169Z,84.58
2023-03-10T10:52:46.132Z,84.72
2023-03-10T10:53:46.127Z,84.52
2023-03-10T10:54:46.100Z,83.28
2023-03-10T10:55:46.093Z,84.41
2023-03-10T10:56:46.078Z,83.90
2023-03-10T10:57:46.156Z,84.41
2023-03-10T10:58:46.087Z,84.20
2023-03-10T10:59:46.042Z,84.92
2023-03-10T11:00:46.035Z,84.52
2023-03-10T11:01:46.171Z,84.72
2023-03-10T11:02:46.187Z,84.20
2023-03-10T11:03:46.019Z,83.90
2023-03-10T11:04:46.073Z,84.82
2023-03-10T11:05:45.982Z,83.18
2023-03-10T11:06:46.025Z,83.07
2023-03-10T11:07:46.029Z,82.05
2023-03-10T11:08:46.033Z,82.46
2023-03-10T11:09:45.946Z,82.67
2023-03-10T11:10:45.965Z,84.61
2023-03-10T11:11:45.906Z,82.77
2023-03-10T11:12:45.918Z,82.77
2023-03-10T11:13:45.908Z,82.56
2023-03-10T11:14:45.875Z,82.67
2023-03-10T11:15:45.915Z,82.56
2023-03-10T11:16:45.855Z,82.22
2023-03-10T11:17:45.925Z,82.32
2023-03-10T11:18:45.833Z,82.53
2023-03-10T11:19:45.830Z,82.42
2023-03-10T11:20:45.816Z,82.01
2023-03-10T11:21:45.814Z,82.28
2023-03-10T11:22:45.815Z,82.49
2023-03-10T11:23:45.775Z,81.94
2023-03-10T11:24:45.764Z,81.43
2023-03-10T11:25:45.778Z,80.60
2023-03-10T11:26:45.772Z,81.12
2023-03-10T11:27:45.748Z,81.32
2023-03-10T11:28:45.726Z,81.22
2023-03-10T11:29:45.885Z,81.18
2023-03-10T11:30:45.803Z,80.67
2023-03-10T11:31:45.694Z,80.46
2023-03-10T11:32:45.799Z,80.57
2023-03-10T11:33:45.667Z,78.11
2023-03-10T11:34:45.730Z,79.10
2023-03-10T11:35:45.887Z,80.22
2023-03-10T11:36:55.338Z,80.22
2023-03-10T11:37:46.657Z,79.50
2023-03-10T11:38:45.620Z,80.22
2023-03-10T11:39:45.616Z,80.63
2023-03-10T11:40:45.606Z,80.63
2023-03-10T11:41:45.641Z,79.68
2023-03-10T11:42:45.561Z,80.08
2023-03-10T11:43:45.572Z,78.86
2023-03-10T11:44:45.571Z,77.94
2023-03-10T11:45:45.547Z,78.61
2023-03-10T11:46:45.590Z,79.13
2023-03-10T11:47:45.592Z,77.90
2023-03-10T11:48:45.496Z,77.49
2023-03-10T11:49:45.493Z,76.03
2023-03-10T11:50:45.473Z,75.41
2023-03-10T11:51:45.492Z,76.12
2023-03-10T11:52:45.452Z,74.39
2023-03-10T11:53:45.472Z,74.39
2023-03-10T11:54:45.439Z,75.37
2023-03-10T11:55:45.432Z,74.56
2023-03-10T11:56:45.439Z,74.32
2023-03-10T11:57:45.393Z,73.77
2023-03-10T11:58:45.415Z,74.18
2023-03-10T11:59:45.417Z,73.77
2023-03-10T12:00:45.376Z,75.07
2023-03-10T12:01:45.381Z,73.64
2023-03-10T12:02:45.337Z,73.43
2023-03-10T12:03:45.415Z,72.92
2023-03-10T12:04:45.346Z,72.41
2023-03-10T12:05:45.458Z,72.31
2023-03-10T12:06:45.307Z,72.62
2023-03-10T12:07:45.308Z,72.92
2023-03-10T12:08:45.292Z,72.00
2023-03-10T12:09:45.261Z,70.89
2023-03-10T12:10:45.306Z,70.89
2023-03-10T12:11:45.258Z,70.78
2023-03-10T12:12:45.253Z,71.70
2023-03-10T12:13:45.210Z,71.02
2023-03-10T12:14:45.223Z,70.89
2023-03-10T12:15:45.220Z,71.09
2023-03-10T12:16:45.180Z,71.19
2023-03-10T12:17:45.240Z,71.80
2023-03-10T12:18:45.157Z,71.09
2023-03-10T12:19:45.145Z,72.11
2023-03-10T12:20:45.148Z,71.09
2023-03-10T12:21:45.143Z,70.54
2023-03-10T12:22:45.133Z,69.93
2023-03-10T12:23:45.140Z,68.51
2023-03-10T12:24:45.177Z,69.32
2023-03-10T12:25:45.084Z,68.37
2023-03-10T12:26:45.105Z,68.88
2023-03-10T12:27:45.083Z,68.48
2023-03-10T12:28:45.062Z,67.96
2023-03-10T12:29:45.090Z,67.55
2023-03-10T12:30:45.024Z,68.37
2023-03-10T12:31:45.131Z,68.27
2023-03-10T12:32:45.086Z,67.73
2023-03-10T12:33:45.009Z,67.32
2023-03-10T12:34:45.054Z,68.04
2023-03-10T12:35:45.092Z,69.36
2023-03-10T12:36:44.952Z,69.97
2023-03-10T12:37:44.939Z,69.56
2023-03-10T12:38:44.947Z,68.10
2023-03-10T12:39:44.946Z,68.04
2023-03-10T12:40:44.934Z,66.50
2023-03-10T12:41:44.893Z,67.60
2023-03-10T12:42:44.905Z,67.63
2023-03-10T12:43:44.875Z,67.52
2023-03-10T12:44:44.891Z,68.13
2023-03-10T12:45:44.883Z,67.22
2023-03-10T12:46:44.864Z,66.61
2023-03-10T12:47:44.830Z,66.20
2023-03-10T12:48:44.812Z,65.89
2023-03-10T12:49:44.853Z,66.44
2023-03-10T12:50:44.820Z,66.20
2023-03-10T12:51:44.822Z,67.22
2023-03-10T12:52:44.805Z,67.12
2023-03-10T12:53:44.754Z,67.02